createdAt,value
2023-02-21T00:02:30.443Z,84.50
2023-02-21T00:05:51.013Z,84.70
2023-02-21T00:09:11.189Z,84.70
2023-02-21T00:12:31.689Z,84.50
2023-02-21T00:15:52.123Z,84.80
2023-02-21T00:19:12.594Z,84.90
2023-02-21T00:22:33.047Z,84.80
2023-02-21T00:25:53.224Z,84.80
2023-02-21T00:29:13.413Z,84.80
2023-02-21T00:32:33.574Z,84.80
2023-02-21T00:35:54.106Z,85.60
2023-02-21T00:39:14.559Z,86.00
2023-02-21T00:42:34.961Z,86.20
2023-02-21T00:45:55.411Z,86.20
2023-02-21T00:49:15.808Z,86.20
2023-02-21T00:52:36.307Z,86.20
2023-02-21T00:55:56.529Z,86.60
2023-02-21T00:59:16.723Z,87.10
2023-02-21T01:02:37.187Z,87.00
2023-02-21T01:05:57.364Z,86.70
2023-02-21T01:09:17.390Z,86.70
2023-02-21T01:12:37.733Z,86.70
2023-02-21T01:15:58.117Z,86.40
2023-02-21T01:19:18.561Z,86.40
2023-02-21T01:22:38.734Z,86.50
2023-02-21T01:25:59.361Z,86.60
2023-02-21T01:29:19.357Z,86.50
2023-02-21T01:32:39.596Z,86.70
2023-02-21T01:35:59.845Z,86.70
2023-02-21T01:39:20.169Z,86.60
2023-02-21T01:42:40.424Z,86.70
2023-02-21T01:46:07.523Z,86.70
2023-02-21T01:49:32.223Z,86.60
2023-02-21T01:52:52.753Z,86.40
2023-02-21T01:56:15.356Z,86.70
2023-02-21T01:59:38.843Z,87.10
2023-02-21T02:03:21.859Z,87.50
2023-02-21T02:06:42.106Z,87.80
2023-02-21T02:10:02.306Z,87.80
2023-02-21T02:13:29.792Z,87.70
2023-02-21T02:16:49.294Z,87.90
2023-02-21T02:20:29.518Z,88.00
2023-02-21T02:23:55.174Z,87.90
2023-02-21T02:27:30.788Z,87.70
2023-02-21T02:31:01.236Z,87.70
2023-02-21T02:34:37.446Z,87.90
2023-02-21T02:38:01.432Z,87.80
2023-02-21T02:41:33.489Z,87.70
2023-02-21T02:44:40.269Z,87.70
2023-02-21T02:47:45.535Z,87.70
2023-02-21T02:50:49.410Z,87.80
2023-02-21T02:53:50.981Z,87.80
2023-02-21T02:56:52.622Z,87.80
2023-02-21T02:59:54.423Z,87.80
2023-02-21T03:03:23.533Z,87.90
2023-02-21T03:06:44.834Z,87.90
2023-02-21T03:10:12.066Z,88.20
2023-02-21T03:13:40.797Z,88.50
2023-02-21T03:16:55.503Z,88.60
2023-02-21T03:19:58.415Z,88.30
2023-02-21T03:23:03.017Z,88.10
2023-02-21T03:26:07.834Z,88.60
2023-02-21T03:29:10.430Z,89.00
2023-02-21T03:32:35.254Z,89.10
2023-02-21T03:35:36.924Z,89.10
2023-02-21T03:38:38.701Z,89.70
2023-02-21T03:41:40.503Z,89.60
2023-02-21T03:44:42.103Z,89.40
2023-02-21T03:47:43.810Z,89.40
2023-02-21T03:50:45.660Z,89.30
2023-02-21T03:53:47.346Z,89.10
2023-02-21T03:56:48.913Z,88.80
2023-02-21T03:59:50.525Z,88.70
2023-02-21T04:02:52.171Z,88.80
2023-02-21T04:05:53.764Z,89.20
2023-02-21T04:08:55.676Z,89.20
2023-02-21T04:11:57.362Z,89.40
2023-02-21T04:14:59.020Z,89.60
2023-02-21T04:18:00.668Z,89.80
2023-02-21T04:21:02.260Z,89.70
2023-02-21T04:24:04.091Z,89.70
2023-02-21T04:27:05.741Z,89.40
2023-02-21T04:30:08.117Z,89.40
2023-02-21T04:33:09.793Z,89.30
2023-02-21T04:36:11.369Z,89.40
2023-02-21T04:39:13.302Z,89.40
2023-02-21T04:42:14.914Z,89.30
2023-02-21T04:45:16.614Z,89.40
2023-02-21T04:48:18.502Z,89.50
2023-02-21T04:51:22.985Z,89.70
2023-02-21T04:54:24.626Z,90.10
2023-02-21T04:57:26.389Z,90.10
2023-02-21T05:00:27.996Z,90.40
2023-02-21T05:03:29.610Z,90.50
2023-02-21T05:06:31.725Z,90.70
2023-02-21T05:09:33.359Z,90.90
2023-02-21T05:12:35.678Z,91.10
2023-02-21T05:15:37.308Z,91.00
2023-02-21T05:18:41.113Z,91.10
2023-02-21T05:21:42.749Z,91.00
2023-02-21T05:24:44.407Z,91.40
2023-02-21T05:27:46.482Z,91.20
2023-02-21T05:30:48.587Z,91.20
2023-02-21T05:33:50.263Z,91.40
2023-02-21T05:36:51.947Z,91.50
2023-02-21T05:39:53.542Z,91.50
2023-02-21T05:42:55.182Z,91.50
2023-02-21T05:45:56.918Z,91.50
2023-02-21T05:48:59.984Z,91.50
2023-02-21T05:52:01.762Z,91.40
2023-02-21T05:55:03.606Z,91.30
2023-02-21T05:58:05.172Z,91.40
2023-02-21T06:01:06.985Z,91.50
2023-02-21T06:04:08.665Z,91.50
2023-02-21T06:07:10.257Z,91.40
2023-02-21T06:10:12.723Z,91.40
2023-02-21T06:13:14.300Z,91.40
2023-02-21T06:16:15.881Z,91.20
2023-02-21T06:19:18.820Z,91.10
2023-02-21T06:22:20.595Z,91.00
2023-02-21T06:25:22.249Z,90.90
2023-02-21T06:28:30.588Z,90.60
2023-02-21T06:31:32.402Z,90.40
2023-02-21T06:34:34.113Z,90.60
2023-02-21T06:37:35.732Z,90.60
2023-02-21T06:40:37.664Z,90.50
2023-02-21T06:43:39.395Z,90.70
2023-02-21T06:46:41.033Z,90.60
2023-02-21T06:49:43.212Z,90.50
2023-02-21T06:52:44.792Z,90.70
2023-02-21T06:55:46.352Z,90.80
2023-02-21T06:58:47.927Z,90.80
2023-02-21T07:01:49.697Z,90.70
2023-02-21T07:04:51.417Z,90.90
2023-02-21T07:07:53.132Z,90.80
2023-02-21T07:10:54.743Z,90.90
2023-02-21T07:13:59.465Z,90.70
2023-02-21T07:17:01.260Z,90.60
2023-02-21T07:20:04.313Z,90.50
2023-02-21T07:23:05.959Z,90.50
2023-02-21T07:26:07.570Z,90.40
2023-02-21T07:29:09.285Z,90.20
2023-02-21T07:32:10.894Z,89.90
2023-02-21T07:35:12.966Z,89.50
2023-02-21T07:38:22.210Z,89.30
2023-02-21T07:41:23.818Z,89.30
2023-02-21T07:44:25.461Z,89.10
2023-02-21T07:47:27.646Z,88.90
2023-02-21T07:50:29.266Z,88.40
2023-02-21T07:53:30.940Z,88.10
2023-02-21T07:56:32.565Z,87.90
2023-02-21T07:59:34.157Z,87.70
2023-02-21T08:02:35.754Z,87.20
2023-02-21T08:05:37.413Z,86.70
2023-02-21T08:08:39.025Z,86.30
2023-02-21T08:11:40.657Z,86.00
2023-02-21T08:14:42.300Z,85.50
2023-02-21T08:17:44.278Z,85.00
2023-02-21T08:20:46.269Z,84.80
2023-02-21T08:23:47.865Z,84.50
2023-02-21T08:26:49.409Z,84.20
2023-02-21T08:29:51.829Z,83.70
2023-02-21T08:32:53.467Z,83.40
2023-02-21T08:35:55.075Z,83.40
2023-02-21T08:38:56.662Z,82.70
2023-02-21T08:41:58.506Z,82.20
2023-02-21T08:45:00.195Z,82.40
2023-02-21T08:48:01.949Z,82.30
2023-02-21T08:51:04.214Z,82.00
2023-02-21T08:54:06.742Z,81.50
2023-02-21T08:57:08.812Z,80.90
2023-02-21T09:00:13.225Z,80.50
2023-02-21T09:03:14.798Z,80.40
2023-02-21T09:06:17.337Z,80.60
2023-02-21T09:09:18.988Z,80.40
2023-02-21T09:12:20.591Z,79.80
2023-02-21T09:15:22.187Z,79.30
2023-02-21T09:18:23.823Z,79.00
2023-02-21T09:21:25.825Z,79.20
2023-02-21T09:24:28.181Z,78.30
2023-02-21T09:27:38.779Z,78.20
2023-02-21T09:30:40.762Z,78.50
2023-02-21T09:33:42.409Z,78.00
2023-02-21T09:36:44.506Z,77.70
2023-02-21T09:39:46.155Z,77.60
2023-02-21T09:42:50.977Z,77.60
2023-02-21T09:45:54.784Z,76.60
2023-02-21T09:48:56.947Z,76.30
2023-02-21T09:52:00.662Z,75.80
2023-02-21T09:55:14.747Z,75.50
2023-02-21T09:58:19.569Z,75.20
2023-02-21T10:01:42.454Z,75.00
2023-02-21T10:05:07.518Z,74.70
2023-02-21T10:08:26.917Z,74.20
2023-02-21T10:11:54.340Z,74.50
2023-02-21T10:14:55.942Z,73.80
2023-02-21T10:18:27.074Z,73.30
2023-02-21T10:21:34.426Z,72.80
2023-02-21T10:24:36.128Z,71.70
2023-02-21T10:27:37.747Z,71.60
2023-02-21T10:30:40.934Z,71.10
2023-02-21T10:33:43.418Z,71.10
2023-02-21T10:36:45.058Z,70.70
2023-02-21T10:39:51.611Z,70.20
2023-02-21T10:43:05.212Z,70.20
2023-02-21T10:46:27.510Z,68.90
2023-02-21T10:50:00.546Z,68.60
2023-02-21T10:53:02.389Z,68.20
2023-02-21T10:56:19.290Z,67.60
2023-02-21T10:59:30.872Z,67.50
2023-02-21T11:02:36.325Z,67.10
2023-02-21T11:05:38.411Z,66.60
2023-02-21T11:08:42.885Z,66.90
2023-02-21T11:11:44.599Z,66.40
2023-02-21T11:15:05.798Z,66.50
2023-02-21T11:18:25.095Z,65.70
2023-02-21T11:21:26.733Z,65.60
2023-02-21T11:24:28.382Z,65.40
2023-02-21T11:27:32.923Z,64.70
2023-02-21T11:30:40.390Z,64.50
2023-02-21T11:33:52.048Z,64.50
2023-02-21T11:37:01.591Z,63.80
2023-02-21T11:40:06.249Z,64.10
2023-02-21T11:43:26.053Z,63.80
2023-02-21T11:46:36.153Z,63.50
2023-02-21T11:49:52.125Z,62.90
2023-02-21T11:53:23.061Z,63.00
2023-02-21T11:56:56.175Z,62.90
2023-02-21T12:00:35.551Z,61.90
2023-02-21T12:04:11.252Z,62.20
2023-02-21T12:07:30.070Z,62.30
2023-02-21T12:10:50.375Z,61.30
2023-02-21T12:14:03.240Z,61.60
2023-02-21T12:17:04.892Z,61.50
2023-02-21T12:20:25.617Z,60.80
2023-02-21T12:23:52.210Z,60.00
2023-02-21T12:27:15.891Z,60.90
2023-02-21T12:30:36.778Z,60.20
2023-02-21T12:34:12.840Z,60.70
2023-02-21T12:37:29.342Z,60.40
2023-02-21T12:41:01.738Z,59.90
2023-02-21T12:44:26.977Z,59.80
2023-02-21T12:47:46.580Z,58.50
2023-02-21T12:50:53.348Z,59.40
2023-02-21T12:54:04.181Z,59.70
2023-02-21T12:57:14.835Z,58.90
2023-02-21T13:00:44.149Z,59.00
2023-02-21T13:04:00.560Z,58.90
2023-02-21T13:07:18.909Z,58.90
2023-02-21T13:10:26.167Z,59.10
2023-02-21T13:13:34.376Z,58.50
2023-02-21T13:16:36.064Z,58.20
2023-02-21T13:20:02.714Z,57.80
2023-02-21T13:24:01.153Z,57.50
2023-02-21T13:27:31.781Z,56.80
2023-02-21T13:30:36.027Z,57.20
2023-02-21T13:33:45.909Z,57.70
2023-02-21T13:36:48.205Z,57.80
2023-02-21T13:39:54.702Z,57.60
2023-02-21T13:43:11.729Z,56.90
2023-02-21T13:46:45.892Z,56.60
2023-02-21T13:49:58.784Z,55.90
2023-02-21T13:53:09.464Z,56.60
2023-02-21T13:56:11.077Z,56.40
2023-02-21T13:59:34.852Z,56.40
2023-02-21T14:02:36.534Z,56.30
2023-02-21T14:05:47.715Z,55.50
2023-02-21T14:08:55.849Z,55.10
2023-02-21T14:12:04.662Z,55.10
2023-02-21T14:15:08.054Z,54.60
2023-02-21T14:18:27.129Z,55.00
2023-02-21T14:21:49.915Z,55.30
2023-02-21T14:25:03.378Z,55.00
2023-02-21T14:28:43.609Z,54.70
2023-02-21T14:32:03.980Z,54.40
2023-02-21T14:35:35.371Z,54.20
2023-02-21T14:38:42.328Z,54.80
2023-02-21T14:42:21.449Z,54.60
2023-02-21T14:46:01.011Z,54.00
2023-02-21T14:49:17.940Z,55.00
2023-02-21T14:52:37.063Z,54.70
2023-02-21T14:56:10.177Z,54.70
2023-02-21T14:59:31.902Z,54.50
2023-02-21T15:02:52.728Z,55.30
2023-02-21T15:06:02.220Z,55.50
2023-02-21T15:09:20.563Z,55.30
2023-02-21T15:12:22.719Z,55.50
2023-02-21T15:15:31.607Z,55.20
2023-02-21T15:18:35.673Z,55.30
2023-02-21T15:21:37.414Z,55.40
2023-02-21T15:24:39.078Z,55.00
2023-02-21T15:27:50.908Z,55.60
2023-02-21T15:31:03.136Z,55.80
2023-02-21T15:34:04.847Z,55.00
2023-02-21T15:37:29.616Z,55.20
2023-02-21T15:40:31.929Z,56.10
2023-02-21T15:43:37.892Z,56.10
2023-02-21T15:46:57.409Z,56.10
2023-02-21T15:50:04.581Z,56.40
2023-02-21T15:53:14.922Z,56.30
2023-02-21T15:56:23.112Z,56.30
2023-02-21T15:59:28.888Z,56.50
2023-02-21T16:02:32.435Z,56.60
2023-02-21T16:05:34.261Z,57.10
2023-02-21T16:08:38.701Z,57.20
2023-02-21T16:11:45.843Z,57.30
2023-02-21T16:15:29.885Z,57.30
2023-02-21T16:18:31.983Z,57.70
2023-02-21T16:21:33.600Z,58.30
2023-02-21T16:24:35.472Z,58.60
2023-02-21T16:27:42.488Z,58.80
2023-02-21T16:30:44.484Z,59.20
2023-02-21T16:33:46.201Z,59.50
2023-02-21T16:36:48.351Z,59.80
2023-02-21T16:39:50.185Z,60.20
2023-02-21T16:42:53.048Z,60.60
2023-02-21T16:45:57.952Z,60.90
2023-02-21T16:48:59.905Z,61.50
2023-02-21T16:52:01.517Z,62.10
2023-02-21T16:55:03.140Z,62.50
2023-02-21T16:58:29.605Z,63.20
2023-02-21T17:01:34.689Z,63.60
2023-02-21T17:04:36.402Z,64.00
2023-02-21T17:07:38.450Z,64.40
2023-02-21T17:10:40.042Z,65.10
2023-02-21T17:13:41.732Z,65.60
2023-02-21T17:16:45.023Z,66.30
2023-02-21T17:19:46.635Z,66.60
2023-02-21T17:22:48.688Z,67.20
2023-02-21T17:25:50.362Z,67.50
2023-02-21T17:28:52.141Z,67.60
2023-02-21T17:31:55.346Z,67.90
2023-02-21T17:34:57.001Z,68.40
2023-02-21T17:38:01.623Z,69.00
2023-02-21T17:41:04.304Z,69.60
2023-02-21T17:44:05.940Z,70.10
2023-02-21T17:47:08.656Z,70.50
2023-02-21T17:50:10.377Z,70.90
2023-02-21T17:53:12.080Z,70.90
2023-02-21T17:56:17.692Z,71.30
2023-02-21T17:59:19.921Z,71.70
2023-02-21T18:02:21.541Z,71.80
2023-02-21T18:05:23.691Z,72.30
2023-02-21T18:08:25.393Z,73.10
2023-02-21T18:11:26.986Z,73.50
2023-02-21T18:14:32.061Z,73.90
2023-02-21T18:17:33.768Z,73.80
2023-02-21T18:20:35.736Z,73.90
2023-02-21T18:23:38.069Z,74.20
2023-02-21T18:26:41.506Z,74.40
2023-02-21T18:29:43.136Z,75.00
2023-02-21T18:32:46.242Z,75.10
2023-02-21T18:35:48.334Z,75.30
2023-02-21T18:38:50.016Z,75.60
2023-02-21T18:41:52.959Z,75.80
2023-02-21T18:44:56.359Z,76.10
2023-02-21T18:47:57.962Z,76.20
2023-02-21T18:50:59.664Z,76.30
2023-02-21T18:54:02.016Z,76.90
2023-02-21T18:57:03.682Z,77.10
2023-02-21T19:00:07.065Z,77.20
2023-02-21T19:03:11.833Z,77.40
2023-02-21T19:06:17.166Z,77.50
2023-02-21T19:09:18.820Z,77.70
2023-02-21T19:12:20.401Z,78.00
2023-02-21T19:15:22.053Z,78.50
2023-02-21T19:18:23.699Z,78.50
2023-02-21T19:21:26.551Z,78.60
2023-02-21T19:24:28.483Z,78.60
2023-02-21T19:27:30.117Z,78.90
2023-02-21T19:30:37.179Z,79.00
2023-02-21T19:33:40.004Z,78.50
2023-02-21T19:36:41.942Z,78.60
2023-02-21T19:39:43.718Z,78.80
2023-02-21T19:42:45.366Z,79.30
2023-02-21T19:45:47.355Z,79.40
2023-02-21T19:48:49.670Z,79.40
2023-02-21T19:51:53.407Z,79.60
2023-02-21T19:54:55.320Z,79.90
2023-02-21T19:57:57.113Z,80.20
2023-02-21T20:00:58.788Z,80.70
2023-02-21T20:04:01.530Z,81.30
2023-02-21T20:07:03.526Z,81.80
2023-02-21T20:10:05.629Z,82.20
2023-02-21T20:13:08.314Z,82.30
2023-02-21T20:16:11.081Z,82.30
2023-02-21T20:19:13.728Z,81.70
2023-02-21T20:22:15.420Z,81.60
2023-02-21T20:25:17.095Z,81.70
2023-02-21T20:28:19.915Z,81.90
2023-02-21T20:31:25.983Z,82.10
2023-02-21T20:34:28.109Z,81.90
2023-02-21T20:37:31.400Z,81.80
2023-02-21T20:40:35.038Z,82.00
2023-02-21T20:43:37.361Z,82.40
2023-02-21T20:46:38.941Z,82.10
2023-02-21T20:49:44.297Z,82.20
2023-02-21T20:52:46.727Z,82.30
2023-02-21T20:55:48.364Z,82.60
2023-02-21T20:58:50.236Z,82.50
2023-02-21T21:01:52.515Z,82.70
2023-02-21T21:04:54.371Z,83.50
2023-02-21T21:07:57.030Z,83.80
2023-02-21T21:10:58.748Z,84.10
2023-02-21T21:14:02.676Z,84.60
2023-02-21T21:17:04.602Z,84.70
2023-02-21T21:20:14.202Z,84.30
2023-02-21T21:23:15.810Z,84.30
2023-02-21T21:26:17.517Z,84.60
2023-02-21T21:29:23.887Z,84.90
2023-02-21T21:32:25.501Z,85.40
2023-02-21T21:35:30.007Z,85.50
2023-02-21T21:38:31.743Z,85.40
2023-02-21T21:41:34.316Z,86.20
2023-02-21T21:44:38.272Z,86.20
2023-02-21T21:47:39.884Z,85.90
2023-02-21T21:50:44.558Z,85.90
2023-02-21T21:53:47.269Z,86.50
2023-02-21T21:56:48.987Z,86.50
2023-02-21T21:59:50.725Z,86.30
2023-02-21T22:02:57.350Z,86.20
2023-02-21T22:06:00.464Z,86.10
2023-02-21T22:09:03.005Z,86.50
2023-02-21T22:12:06.265Z,86.80
2023-02-21T22:15:10.441Z,86.70
2023-02-21T22:18:18.083Z,86.70
2023-02-21T22:21:22.190Z,87.40
2023-02-21T22:24:25.207Z,87.50
2023-02-21T22:27:27.227Z,87.50
2023-02-21T22:30:28.922Z,87.60
2023-02-21T22:33:30.508Z,86.90
2023-02-21T22:36:32.898Z,86.80
2023-02-21T22:39:34.456Z,87.20
2023-02-21T22:42:36.030Z,87.40
2023-02-21T22:45:38.157Z,87.80
2023-02-21T22:48:40.024Z,87.80
2023-02-21T22:51:41.641Z,88.00
2023-02-21T22:54:43.281Z,88.00
2023-02-21T22:57:45.172Z,88.50
2023-02-21T23:00:48.427Z,88.80
2023-02-21T23:03:50.056Z,88.50
2023-02-21T23:06:57.371Z,88.00
2023-02-21T23:09:58.962Z,88.20
2023-02-21T23:13:00.832Z,88.30
2023-02-21T23:16:02.641Z,87.90
2023-02-21T23:19:06.817Z,87.70
2023-02-21T23:22:09.952Z,87.70
2023-02-21T23:25:19.915Z,87.80
2023-02-21T23:28:22.570Z,87.70
2023-02-21T23:31:24.164Z,87.80
2023-02-21T23:34:40.145Z,88.50
2023-02-21T23:37:46.761Z,88.50
2023-02-21T23:40:56.019Z,88.30
2023-02-21T23:43:58.150Z,88.70
2023-02-21T23:46:59.890Z,88.80
2023-02-21T23:50:01.489Z,89.20
2023-02-21T23:53:04.953Z,89.60
2023-02-21T23:56:07.210Z,89.50
2023-02-21T23:59:08.836Z,89.60
